No particular awareness of the weather is required.    There are no Weather-warnings


Meteo18 Weather Cam more information Meteo18 Weather Cam


Thunder radar more information blitzortung!


Rain radar more information rain snow radar


Visit our other weather sites:

Template documentation
and downloads

And another site



Weather Underground History page Text

Daily Summary for March 27, 2017 Units:  Both    English   Metric
« Previous Day
Next Day »
Daily Weekly Monthly Yearly Custom
  High: Low: Average:
Temperature: 67.8 °F /  19.9 °C 42.1 °F /  5.6 °C 54.9 °F /  12.7 °C
Dew Point: 46.9 °F /  8.3 °C 38.5 °F /  3.6 °C 42.8 °F /  6 °C
Humidity: 89 % 39 % 66 %
Wind Speed: 9 mph /  14.5 km/h - 1.7 mph /  2.8 km/h
Wind Gust: 14 mph /  22.5 km/h - -
Wind:- - South
Pressure: 30.2 in /  1020.9 hPa 30.1 in /  1018.8 hPa -
Precipitation: 0 in /  0.0 mm    
Historical Graphs
 
 
Tabular Data for March 27, 2017
Time Temperature Dew Point Pressure Wind Wind Speed Wind Gust Humidity Rainfall Rate (Hourly)
00:12 50.4 °F /  10.2 °C 42.4 °F /  5.8 °C 30.1 in /  1020.5 hPa ENE 1 mph /  1.6 km/h 3 mph /  4.8 km/h 74 % 0 in /  0.0 mm
00:17 50.2 °F /  10.1 °C 42.6 °F /  5.9 °C 30.1 in /  1020.5 hPa Calm   3 mph /  4.8 km/h 75 % 0 in /  0.0 mm
00:22 50.2 °F /  10.1 °C 42.6 °F /  5.9 °C 30.1 in /  1020.5 hPa NNE 1 mph /  1.6 km/h 3 mph /  4.8 km/h 75 % 0 in /  0.0 mm
00:32 50.2 °F /  10.1 °C 42.6 °F /  5.9 °C 30.1 in /  1020.5 hPa Calm   2 mph /  3.2 km/h 75 % 0 in /  0.0 mm
00:42 50 °F /  10.0 °C 42.4 °F /  5.8 °C 30.1 in /  1020.5 hPa Calm   1 mph /  1.6 km/h 75 % 0 in /  0.0 mm
00:52 48.6 °F /  9.2 °C 42.1 °F /  5.6 °C 30.1 in /  1020.5 hPa WNW 1 mph /  1.6 km/h 2 mph /  3.2 km/h 78 % 0 in /  0.0 mm
00:57 49.3 °F /  9.6 °C 42.4 °F /  5.8 °C 30.1 in /  1020.5 hPa NNW 1 mph /  1.6 km/h 2 mph /  3.2 km/h 77 % 0 in /  0.0 mm
01:02 49.3 °F /  9.6 °C 42.1 °F /  5.6 °C 30.1 in /  1020.5 hPa NNW 1 mph /  1.6 km/h 2 mph /  3.2 km/h 76 % 0 in /  0.0 mm
01:12 48.6 °F /  9.2 °C 42.3 °F /  5.7 °C 30.1 in /  1020.5 hPa Calm   2 mph /  3.2 km/h 79 % 0 in /  0.0 mm
01:17 48.7 °F /  9.3 °C 42.3 °F /  5.7 °C 30.1 in /  1020.5 hPa NNW 1 mph /  1.6 km/h 1 mph /  1.6 km/h 78 % 0 in /  0.0 mm
01:22 48.7 °F /  9.3 °C 42.3 °F /  5.7 °C 30.1 in /  1020.5 hPa Calm   1 mph /  1.6 km/h 78 % 0 in /  0.0 mm
01:27 48.7 °F /  9.3 °C 41.9 °F /  5.5 °C 30.1 in /  1020.5 hPa NNW 1 mph /  1.6 km/h 1 mph /  1.6 km/h 77 % 0 in /  0.0 mm
01:32 48.7 °F /  9.3 °C 41.9 °F /  5.5 °C 30.1 in /  1020.5 hPa NNW 1 mph /  1.6 km/h 1 mph /  1.6 km/h 77 % 0 in /  0.0 mm
01:42 48.6 °F /  9.2 °C 42.1 °F /  5.6 °C 30.1 in /  1020.5 hPa Calm   2 mph /  3.2 km/h 78 % 0 in /  0.0 mm
01:52 48.4 °F /  9.1 °C 42.3 °F /  5.7 °C 30.1 in /  1020.5 hPa Calm   2 mph /  3.2 km/h 79 % 0 in /  0.0 mm
01:57 47.8 °F /  8.8 °C 41.7 °F /  5.4 °C 30.1 in /  1020.5 hPa North 1 mph /  1.6 km/h 4 mph /  6.4 km/h 79 % 0 in /  0.0 mm
02:02 47.7 °F /  8.7 °C 41.7 °F /  5.4 °C 30.1 in /  1020.5 hPa North 2 mph /  3.2 km/h 4 mph /  6.4 km/h 80 % 0 in /  0.0 mm
02:12 47.8 °F /  8.8 °C 41.9 °F /  5.5 °C 30.1 in /  1020.5 hPa Calm   3 mph /  4.8 km/h 80 % 0 in /  0.0 mm
02:17 47.7 °F /  8.7 °C 41.5 °F /  5.3 °C 30.1 in /  1020.2 hPa Calm   2 mph /  3.2 km/h 79 % 0 in /  0.0 mm
02:22 46.9 °F /  8.3 °C 41.2 °F /  5.1 °C 30.1 in /  1020.2 hPa North 1 mph /  1.6 km/h 2 mph /  3.2 km/h 80 % 0 in /  0.0 mm
02:27 46.6 °F /  8.1 °C 41.4 °F /  5.2 °C 30.1 in /  1020.2 hPa North 1 mph /  1.6 km/h 2 mph /  3.2 km/h 82 % 0 in /  0.0 mm
02:37 46.8 °F /  8.2 °C 41.5 °F /  5.3 °C 30.1 in /  1020.2 hPa Calm   2 mph /  3.2 km/h 82 % 0 in /  0.0 mm
02:42 46.8 °F /  8.2 °C 41.5 °F /  5.3 °C 30.1 in /  1020.2 hPa NNE 2 mph /  3.2 km/h 3 mph /  4.8 km/h 82 % 0 in /  0.0 mm
02:47 46.2 °F /  7.9 °C 41 °F /  5.0 °C 30.1 in /  1020.2 hPa North 2 mph /  3.2 km/h 3 mph /  4.8 km/h 82 % 0 in /  0.0 mm
02:52 46.2 °F /  7.9 °C 41.4 °F /  5.2 °C 30.1 in /  1020.2 hPa Calm   3 mph /  4.8 km/h 83 % 0 in /  0.0 mm
02:57 46 °F /  7.8 °C 41.2 °F /  5.1 °C 30.1 in /  1020.2 hPa Calm   3 mph /  4.8 km/h 83 % 0 in /  0.0 mm
03:02 46 °F /  7.8 °C 41.2 °F /  5.1 °C 30.1 in /  1020.2 hPa Calm   3 mph /  4.8 km/h 83 % 0 in /  0.0 mm
03:12 46.2 °F /  7.9 °C 41.4 °F /  5.2 °C 30.1 in /  1020.2 hPa Calm   2 mph /  3.2 km/h 83 % 0 in /  0.0 mm
03:17 46.2 °F /  7.9 °C 41.4 °F /  5.2 °C 30.1 in /  1019.9 hPa NW 1 mph /  1.6 km/h 2 mph /  3.2 km/h 83 % 0 in /  0.0 mm
03:22 46.2 °F /  7.9 °C 41.4 °F /  5.2 °C 30.1 in /  1019.9 hPa Calm   2 mph /  3.2 km/h 83 % 0 in /  0.0 mm
03:32 45.9 °F /  7.7 °C 41 °F /  5.0 °C 30.1 in /  1019.9 hPa WNW 1 mph /  1.6 km/h 1 mph /  1.6 km/h 83 % 0 in /  0.0 mm
03:37 45.3 °F /  7.4 °C 40.8 °F /  4.9 °C 30.1 in /  1019.9 hPa WNW 1 mph /  1.6 km/h 1 mph /  1.6 km/h 84 % 0 in /  0.0 mm
03:42 46.2 °F /  7.9 °C 41.7 °F /  5.4 °C 30.1 in /  1019.9 hPa WNW 1 mph /  1.6 km/h 2 mph /  3.2 km/h 84 % 0 in /  0.0 mm
03:47 46.8 °F /  8.2 °C 41.5 °F /  5.3 °C 30.1 in /  1019.9 hPa Calm   2 mph /  3.2 km/h 82 % 0 in /  0.0 mm
03:52 46.6 °F /  8.1 °C 41.4 °F /  5.2 °C 30.1 in /  1019.9 hPa Calm   2 mph /  3.2 km/h 82 % 0 in /  0.0 mm
03:57 46.6 °F /  8.1 °C 41.4 °F /  5.2 °C 30.1 in /  1019.9 hPa Calm   1 mph /  1.6 km/h 82 % 0 in /  0.0 mm
04:02 46.6 °F /  8.1 °C 41 °F /  5.0 °C 30.1 in /  1019.9 hPa Calm   1 mph /  1.6 km/h 81 % 0 in /  0.0 mm
04:07 46.4 °F /  8.0 °C 41.2 °F /  5.1 °C 30.1 in /  1019.9 hPa Calm     82 % 0 in /  0.0 mm
04:12 46.6 °F /  8.1 °C 41.4 °F /  5.2 °C 30.1 in /  1019.9 hPa Calm     82 % 0 in /  0.0 mm
04:17 46.4 °F /  8.0 °C 41.2 °F /  5.1 °C 30.1 in /  1019.9 hPa Calm     82 % 0 in /  0.0 mm
04:22 46.8 °F /  8.2 °C 41.2 °F /  5.1 °C 30.1 in /  1019.9 hPa Calm     81 % 0 in /  0.0 mm
04:32 46.8 °F /  8.2 °C 41.2 °F /  5.1 °C 30.1 in /  1019.9 hPa Calm     81 % 0 in /  0.0 mm
04:37 46.6 °F /  8.1 °C 41 °F /  5.0 °C 30.1 in /  1019.9 hPa Calm     81 % 0 in /  0.0 mm
04:42 46.2 °F /  7.9 °C 40.6 °F /  4.8 °C 30.1 in /  1019.5 hPa Calm     81 % 0 in /  0.0 mm
04:47 45.9 °F /  7.7 °C 40.3 °F /  4.6 °C 30.1 in /  1019.5 hPa Calm     81 % 0 in /  0.0 mm
04:52 45.5 °F /  7.5 °C 41 °F /  5.0 °C 30.1 in /  1019.5 hPa Calm     84 % 0 in /  0.0 mm
05:02 45.7 °F /  7.6 °C 40.5 °F /  4.7 °C 30.1 in /  1019.5 hPa Calm     82 % 0 in /  0.0 mm
05:12 46.2 °F /  7.9 °C 41 °F /  5.0 °C 30.1 in /  1019.5 hPa Calm     82 % 0 in /  0.0 mm
05:17 46 °F /  7.8 °C 40.8 °F /  4.9 °C 30.1 in /  1019.5 hPa Calm     82 % 0 in /  0.0 mm
05:22 45.9 °F /  7.7 °C 40.6 °F /  4.8 °C 30.1 in /  1019.5 hPa Calm     82 % 0 in /  0.0 mm
05:27 45.7 °F /  7.6 °C 40.8 °F /  4.9 °C 30.1 in /  1019.2 hPa Calm     83 % 0 in /  0.0 mm
05:32 45.3 °F /  7.4 °C 40.5 °F /  4.7 °C 30.1 in /  1019.5 hPa NNE 2 mph /  3.2 km/h   83 % 0 in /  0.0 mm
05:42 44.8 °F /  7.1 °C 39.6 °F /  4.2 °C 30.1 in /  1019.2 hPa Calm   2 mph /  3.2 km/h 82 % 0 in /  0.0 mm
05:52 44.1 °F /  6.7 °C 40.1 °F /  4.5 °C 30.1 in /  1019.5 hPa Calm   2 mph /  3.2 km/h 86 % 0 in /  0.0 mm
05:57 44.1 °F /  6.7 °C 39.9 °F /  4.4 °C 30.1 in /  1019.5 hPa Calm   2 mph /  3.2 km/h 85 % 0 in /  0.0 mm
06:02 43.2 °F /  6.2 °C 39 °F /  3.9 °C 30.1 in /  1019.5 hPa Calm   1 mph /  1.6 km/h 85 % 0 in /  0.0 mm
06:12 43 °F /  6.1 °C 39 °F /  3.9 °C 30.1 in /  1019.5 hPa Calm   1 mph /  1.6 km/h 86 % 0 in /  0.0 mm
06:17 43 °F /  6.1 °C 39.9 °F /  4.4 °C 30.1 in /  1019.5 hPa Calm   1 mph /  1.6 km/h 89 % 0 in /  0.0 mm
06:22 43.5 °F /  6.4 °C 40.3 °F /  4.6 °C 30.1 in /  1019.5 hPa Calm     88 % 0 in /  0.0 mm
06:32 43.9 °F /  6.6 °C 40.3 °F /  4.6 °C 30.1 in /  1019.5 hPa Calm     87 % 0 in /  0.0 mm
06:37 44.2 °F /  6.8 °C 40.6 °F /  4.8 °C 30.1 in /  1019.5 hPa Calm     87 % 0 in /  0.0 mm
06:42 44.4 °F /  6.9 °C 40.5 °F /  4.7 °C 30.1 in /  1019.5 hPa Calm     86 % 0 in /  0.0 mm
06:47 44.8 °F /  7.1 °C 40.8 °F /  4.9 °C 30.1 in /  1019.5 hPa Calm     86 % 0 in /  0.0 mm
06:52 44.8 °F /  7.1 °C 40.5 °F /  4.7 °C 30.1 in /  1019.5 hPa Calm     85 % 0 in /  0.0 mm
07:02 43.5 °F /  6.4 °C 39.4 °F /  4.1 °C 30.1 in /  1019.5 hPa Calm     85 % 0 in /  0.0 mm
07:07 43.7 °F /  6.5 °C 40.1 °F /  4.5 °C 30.1 in /  1019.5 hPa Calm     87 % 0 in /  0.0 mm
07:12 43.9 °F /  6.6 °C 39.9 °F /  4.4 °C 30.1 in /  1019.5 hPa Calm     86 % 0 in /  0.0 mm
07:17 43.3 °F /  6.3 °C 38.8 °F /  3.8 °C 30.1 in /  1019.5 hPa Calm     84 % 0 in /  0.0 mm
07:22 42.6 °F /  5.9 °C 39 °F /  3.9 °C 30.1 in /  1019.5 hPa WNW 1 mph /  1.6 km/h   87 % 0 in /  0.0 mm
07:27 42.4 °F /  5.8 °C 39.2 °F /  4.0 °C 30.1 in /  1019.5 hPa Calm     88 % 0 in /  0.0 mm
07:32 43 °F /  6.1 °C 39.9 °F /  4.4 °C 30.1 in /  1019.5 hPa Calm   2 mph /  3.2 km/h 89 % 0 in /  0.0 mm
07:37 43 °F /  6.1 °C 39.7 °F /  4.3 °C 30.1 in /  1019.5 hPa Calm   2 mph /  3.2 km/h 88 % 0 in /  0.0 mm
07:42 42.6 °F /  5.9 °C 39.4 °F /  4.1 °C 30.1 in /  1019.9 hPa Calm   1 mph /  1.6 km/h 88 % 0 in /  0.0 mm
07:52 43 °F /  6.1 °C 39.7 °F /  4.3 °C 30.1 in /  1019.9 hPa Calm   2 mph /  3.2 km/h 88 % 0 in /  0.0 mm
08:02 42.1 °F /  5.6 °C 38.5 °F /  3.6 °C 30.1 in /  1019.9 hPa West 1 mph /  1.6 km/h 2 mph /  3.2 km/h 87 % 0 in /  0.0 mm
08:12 42.8 °F /  6.0 °C 39.7 °F /  4.3 °C 30.1 in /  1019.9 hPa Calm   3 mph /  4.8 km/h 89 % 0 in /  0.0 mm
08:17 43.3 °F /  6.3 °C 40.3 °F /  4.6 °C 30.1 in /  1019.9 hPa Calm   3 mph /  4.8 km/h 89 % 0 in /  0.0 mm
08:22 42.6 °F /  5.9 °C 38.5 °F /  3.6 °C 30.1 in /  1019.9 hPa WNW 1 mph /  1.6 km/h 1 mph /  1.6 km/h 85 % 0 in /  0.0 mm
08:32 43.3 °F /  6.3 °C 40.3 °F /  4.6 °C 30.1 in /  1019.9 hPa North 1 mph /  1.6 km/h 2 mph /  3.2 km/h 89 % 0 in /  0.0 mm
08:42 44.8 °F /  7.1 °C 40.8 °F /  4.9 °C 30.1 in /  1019.9 hPa Calm   3 mph /  4.8 km/h 86 % 0 in /  0.0 mm
08:47 45.1 °F /  7.3 °C 40.8 °F /  4.9 °C 30.1 in /  1019.9 hPa NE 2 mph /  3.2 km/h 3 mph /  4.8 km/h 85 % 0 in /  0.0 mm
08:52 45.3 °F /  7.4 °C 40.8 °F /  4.9 °C 30.1 in /  1019.9 hPa NNE 1 mph /  1.6 km/h 3 mph /  4.8 km/h 84 % 0 in /  0.0 mm
09:02 45.9 °F /  7.7 °C 41.4 °F /  5.2 °C 30.1 in /  1019.9 hPa Calm   4 mph /  6.4 km/h 84 % 0 in /  0.0 mm
09:12 47.1 °F /  8.4 °C 42.8 °F /  6.0 °C 30.1 in /  1019.9 hPa Calm   4 mph /  6.4 km/h 85 % 0 in /  0.0 mm
09:17 47.3 °F /  8.5 °C 42.4 °F /  5.8 °C 30.1 in /  1019.9 hPa Calm   4 mph /  6.4 km/h 83 % 0 in /  0.0 mm
09:22 47.8 °F /  8.8 °C 43 °F /  6.1 °C 30.1 in /  1019.9 hPa Calm   3 mph /  4.8 km/h 83 % 0 in /  0.0 mm
09:32 48.4 °F /  9.1 °C 42.4 °F /  5.8 °C 30.1 in /  1019.9 hPa North 1 mph /  1.6 km/h 3 mph /  4.8 km/h 80 % 0 in /  0.0 mm
09:42 49.3 °F /  9.6 °C 43 °F /  6.1 °C 30.1 in /  1019.5 hPa East 1 mph /  1.6 km/h 2 mph /  3.2 km/h 79 % 0 in /  0.0 mm
09:47 49.8 °F /  9.9 °C 43.2 °F /  6.2 °C 30.1 in /  1019.9 hPa Calm   2 mph /  3.2 km/h 78 % 0 in /  0.0 mm
09:52 49.8 °F /  9.9 °C 43.2 °F /  6.2 °C 30.1 in /  1019.9 hPa Calm   3 mph /  4.8 km/h 78 % 0 in /  0.0 mm
10:02 50 °F /  10.0 °C 44.1 °F /  6.7 °C 30.1 in /  1019.9 hPa ENE 1 mph /  1.6 km/h 5 mph /  8.0 km/h 80 % 0 in /  0.0 mm
10:12 50.7 °F /  10.4 °C 43.7 °F /  6.5 °C 30.1 in /  1019.9 hPa ENE 3 mph /  4.8 km/h 4 mph /  6.4 km/h 77 % 0 in /  0.0 mm
10:17 51.1 °F /  10.6 °C 44.1 °F /  6.7 °C 30.1 in /  1019.9 hPa East 3 mph /  4.8 km/h 4 mph /  6.4 km/h 77 % 0 in /  0.0 mm
10:22 51.3 °F /  10.7 °C 44.2 °F /  6.8 °C 30.1 in /  1019.9 hPa NE 2 mph /  3.2 km/h 5 mph /  8.0 km/h 77 % 0 in /  0.0 mm
10:32 52.2 °F /  11.2 °C 45.1 °F /  7.3 °C 30.1 in /  1019.5 hPa ENE 3 mph /  4.8 km/h 6 mph /  9.7 km/h 77 % 0 in /  0.0 mm
10:42 52.9 °F /  11.6 °C 45.5 °F /  7.5 °C 30.1 in /  1019.9 hPa East 2 mph /  3.2 km/h 6 mph /  9.7 km/h 76 % 0 in /  0.0 mm
10:52 54.1 °F /  12.3 °C 45 °F /  7.2 °C 30.1 in /  1019.9 hPa SE 2 mph /  3.2 km/h 5 mph /  8.0 km/h 71 % 0 in /  0.0 mm
11:02 54.3 °F /  12.4 °C 44.1 °F /  6.7 °C 30.1 in /  1019.9 hPa East 4 mph /  6.4 km/h 8 mph /  12.9 km/h 68 % 0 in /  0.0 mm
11:12 54.7 °F /  12.6 °C 44.8 °F /  7.1 °C 30.1 in /  1019.9 hPa ENE 2 mph /  3.2 km/h 8 mph /  12.9 km/h 69 % 0 in /  0.0 mm
11:17 54.7 °F /  12.6 °C 44.2 °F /  6.8 °C 30.1 in /  1019.9 hPa ESE 4 mph /  6.4 km/h 8 mph /  12.9 km/h 68 % 0 in /  0.0 mm
11:22 55 °F /  12.8 °C 45.5 °F /  7.5 °C 30.1 in /  1019.9 hPa ESE 1 mph /  1.6 km/h 8 mph /  12.9 km/h 70 % 0 in /  0.0 mm
11:32 55.8 °F /  13.2 °C 45 °F /  7.2 °C 30.1 in /  1019.9 hPa SE 4 mph /  6.4 km/h 6 mph /  9.7 km/h 67 % 0 in /  0.0 mm
11:37 55.6 °F /  13.1 °C 45.5 °F /  7.5 °C 30.1 in /  1019.9 hPa ESE 2 mph /  3.2 km/h 6 mph /  9.7 km/h 69 % 0 in /  0.0 mm
11:42 56.3 °F /  13.5 °C 46.2 °F /  7.9 °C 30.1 in /  1019.9 hPa SE 3 mph /  4.8 km/h 6 mph /  9.7 km/h 69 % 0 in /  0.0 mm
11:47 56.3 °F /  13.5 °C 45.9 °F /  7.7 °C 30.1 in /  1019.9 hPa East 3 mph /  4.8 km/h 6 mph /  9.7 km/h 68 % 0 in /  0.0 mm
11:52 56.7 °F /  13.7 °C 46.2 °F /  7.9 °C 30.1 in /  1019.9 hPa SE 3 mph /  4.8 km/h 5 mph /  8.0 km/h 68 % 0 in /  0.0 mm
11:57 56.7 °F /  13.7 °C 45.9 °F /  7.7 °C 30.1 in /  1019.9 hPa SE 2 mph /  3.2 km/h 5 mph /  8.0 km/h 67 % 0 in /  0.0 mm
12:02 57.2 °F /  14.0 °C 46.4 °F /  8.0 °C 30.1 in /  1019.9 hPa East 2 mph /  3.2 km/h 6 mph /  9.7 km/h 67 % 0 in /  0.0 mm
12:12 57.7 °F /  14.3 °C 46 °F /  7.8 °C 30.1 in /  1019.5 hPa Calm   7 mph /  11.3 km/h 65 % 0 in /  0.0 mm
12:17 58.3 °F /  14.6 °C 46.9 °F /  8.3 °C 30.1 in /  1019.5 hPa ESE 2 mph /  3.2 km/h 7 mph /  11.3 km/h 66 % 0 in /  0.0 mm
12:22 58.6 °F /  14.8 °C 45.7 °F /  7.6 °C 30.1 in /  1019.5 hPa Calm   6 mph /  9.7 km/h 62 % 0 in /  0.0 mm
12:32 58.8 °F /  14.9 °C 45.3 °F /  7.4 °C 30.1 in /  1019.5 hPa SSE 2 mph /  3.2 km/h 6 mph /  9.7 km/h 61 % 0 in /  0.0 mm
12:37 59.5 °F /  15.3 °C 46.9 °F /  8.3 °C 30.1 in /  1019.5 hPa ENE 2 mph /  3.2 km/h 6 mph /  9.7 km/h 63 % 0 in /  0.0 mm
12:42 59.7 °F /  15.4 °C 45.9 °F /  7.7 °C 30.1 in /  1019.5 hPa East 4 mph /  6.4 km/h 6 mph /  9.7 km/h 60 % 0 in /  0.0 mm
12:47 60.1 °F /  15.6 °C 45.3 °F /  7.4 °C 30.1 in /  1019.5 hPa SSE 2 mph /  3.2 km/h 6 mph /  9.7 km/h 58 % 0 in /  0.0 mm
12:52 60.6 °F /  15.9 °C 46.2 °F /  7.9 °C 30.1 in /  1019.5 hPa ENE 4 mph /  6.4 km/h 8 mph /  12.9 km/h 59 % 0 in /  0.0 mm
13:02 61.3 °F /  16.3 °C 46.4 °F /  8.0 °C 30.1 in /  1019.5 hPa SE 3 mph /  4.8 km/h 11 mph /  17.7 km/h 58 % 0 in /  0.0 mm
13:12 61.5 °F /  16.4 °C 44.8 °F /  7.1 °C 30.1 in /  1019.5 hPa SE 6 mph /  9.7 km/h 11 mph /  17.7 km/h 54 % 0 in /  0.0 mm
13:17 61.3 °F /  16.3 °C 44.6 °F /  7.0 °C 30.1 in /  1019.5 hPa ESE 6 mph /  9.7 km/h 10 mph /  16.1 km/h 54 % 0 in /  0.0 mm
13:22 61.3 °F /  16.3 °C 44.1 °F /  6.7 °C 30.1 in /  1019.5 hPa East 4 mph /  6.4 km/h 10 mph /  16.1 km/h 53 % 0 in /  0.0 mm
13:27 61.3 °F /  16.3 °C 43.5 °F /  6.4 °C 30.1 in /  1019.5 hPa South 2 mph /  3.2 km/h 10 mph /  16.1 km/h 52 % 0 in /  0.0 mm
13:32 61.7 °F /  16.5 °C 44.4 °F /  6.9 °C 30.1 in /  1019.5 hPa SSE 7 mph /  11.3 km/h 12 mph /  19.3 km/h 53 % 0 in /  0.0 mm
13:37 61.5 °F /  16.4 °C 44.8 °F /  7.1 °C 30.1 in /  1019.5 hPa SE 3 mph /  4.8 km/h 12 mph /  19.3 km/h 54 % 0 in /  0.0 mm
13:42 62.1 °F /  16.7 °C 45.1 °F /  7.3 °C 30.1 in /  1019.5 hPa ESE 4 mph /  6.4 km/h 12 mph /  19.3 km/h 54 % 0 in /  0.0 mm
13:47 62.1 °F /  16.7 °C 44.8 °F /  7.1 °C 30.1 in /  1019.5 hPa SSE 6 mph /  9.7 km/h 12 mph /  19.3 km/h 53 % 0 in /  0.0 mm
13:52 62.1 °F /  16.7 °C 43.7 °F /  6.5 °C 30.1 in /  1019.2 hPa South 6 mph /  9.7 km/h 12 mph /  19.3 km/h 51 % 0 in /  0.0 mm
13:57 62.2 °F /  16.8 °C 45 °F /  7.2 °C 30.1 in /  1019.2 hPa ESE 4 mph /  6.4 km/h 12 mph /  19.3 km/h 53 % 0 in /  0.0 mm
14:02 62.4 °F /  16.9 °C 43.5 °F /  6.4 °C 30.1 in /  1019.2 hPa SE 5 mph /  8.0 km/h 12 mph /  19.3 km/h 50 % 0 in /  0.0 mm
14:12 63.1 °F /  17.3 °C 45.1 °F /  7.3 °C 30.1 in /  1019.2 hPa East 3 mph /  4.8 km/h 12 mph /  19.3 km/h 52 % 0 in /  0.0 mm
14:17 63.3 °F /  17.4 °C 45 °F /  7.2 °C 30.1 in /  1019.2 hPa East 7 mph /  11.3 km/h 10 mph /  16.1 km/h 51 % 0 in /  0.0 mm
14:22 62.8 °F /  17.1 °C 43.9 °F /  6.6 °C 30.1 in /  1019.2 hPa SE 6 mph /  9.7 km/h 10 mph /  16.1 km/h 50 % 0 in /  0.0 mm
14:27 62.6 °F /  17.0 °C 44.2 °F /  6.8 °C 30.1 in /  1019.2 hPa SE 7 mph /  11.3 km/h 14 mph /  22.5 km/h 51 % 0 in /  0.0 mm
14:32 63 °F /  17.2 °C 44.1 °F /  6.7 °C 30.1 in /  1019.2 hPa SE 5 mph /  8.0 km/h 14 mph /  22.5 km/h 50 % 0 in /  0.0 mm
14:37 62.8 °F /  17.1 °C 43.3 °F /  6.3 °C 30.1 in /  1019.2 hPa ESE 7 mph /  11.3 km/h 14 mph /  22.5 km/h 49 % 0 in /  0.0 mm
14:42 62.6 °F /  17.0 °C 44.2 °F /  6.8 °C 30.1 in /  1019.2 hPa ENE 5 mph /  8.0 km/h 12 mph /  19.3 km/h 51 % 0 in /  0.0 mm
14:47 63.1 °F /  17.3 °C 44.8 °F /  7.1 °C 30.1 in /  1019.2 hPa SSE 3 mph /  4.8 km/h 12 mph /  19.3 km/h 51 % 0 in /  0.0 mm
14:52 62.8 °F /  17.1 °C 42.8 °F /  6.0 °C 30.1 in /  1019.2 hPa SSW 4 mph /  6.4 km/h 12 mph /  19.3 km/h 48 % 0 in /  0.0 mm
15:02 63.1 °F /  17.3 °C 43.7 °F /  6.5 °C 30.1 in /  1019.2 hPa ESE 4 mph /  6.4 km/h 10 mph /  16.1 km/h 49 % 0 in /  0.0 mm
15:12 63.3 °F /  17.4 °C 45.9 °F /  7.7 °C 30.1 in /  1019.2 hPa SE 6 mph /  9.7 km/h 11 mph /  17.7 km/h 53 % 0 in /  0.0 mm
15:17 63.3 °F /  17.4 °C 43.3 °F /  6.3 °C 30.1 in /  1019.2 hPa East 6 mph /  9.7 km/h 12 mph /  19.3 km/h 48 % 0 in /  0.0 mm
15:22 63.3 °F /  17.4 °C 45.3 °F /  7.4 °C 30.1 in /  1019.2 hPa SE 5 mph /  8.0 km/h 12 mph /  19.3 km/h 52 % 0 in /  0.0 mm
15:27 63.7 °F /  17.6 °C 44.2 °F /  6.8 °C 30.1 in /  1018.8 hPa ESE 3 mph /  4.8 km/h 13 mph /  20.9 km/h 49 % 0 in /  0.0 mm
15:32 63.9 °F /  17.7 °C 45.9 °F /  7.7 °C 30.1 in /  1018.8 hPa NE 6 mph /  9.7 km/h 13 mph /  20.9 km/h 52 % 0 in /  0.0 mm
15:37 63.7 °F /  17.6 °C 45.7 °F /  7.6 °C 30.1 in /  1018.8 hPa East 3 mph /  4.8 km/h 13 mph /  20.9 km/h 52 % 0 in /  0.0 mm
15:42 64.2 °F /  17.9 °C 46.2 °F /  7.9 °C 30.1 in /  1018.8 hPa SE 6 mph /  9.7 km/h 8 mph /  12.9 km/h 52 % 0 in /  0.0 mm
15:47 64.2 °F /  17.9 °C 43.5 °F /  6.4 °C 30.1 in /  1018.8 hPa ESE 1 mph /  1.6 km/h 9 mph /  14.5 km/h 47 % 0 in /  0.0 mm
15:52 64.2 °F /  17.9 °C 44.6 °F /  7.0 °C 30.1 in /  1018.8 hPa ESE 2 mph /  3.2 km/h 12 mph /  19.3 km/h 49 % 0 in /  0.0 mm
15:57 64.9 °F /  18.3 °C 42.4 °F /  5.8 °C 30.1 in /  1018.8 hPa South 5 mph /  8.0 km/h 12 mph /  19.3 km/h 44 % 0 in /  0.0 mm
16:02 65.3 °F /  18.5 °C 41.5 °F /  5.3 °C 30.1 in /  1018.8 hPa SE 6 mph /  9.7 km/h 10 mph /  16.1 km/h 42 % 0 in /  0.0 mm
16:12 65.7 °F /  18.7 °C 41.4 °F /  5.2 °C 30.1 in /  1018.8 hPa SE 3 mph /  4.8 km/h 9 mph /  14.5 km/h 41 % 0 in /  0.0 mm
16:17 65.8 °F /  18.8 °C 42.1 °F /  5.6 °C 30.1 in /  1018.8 hPa SSW 6 mph /  9.7 km/h 11 mph /  17.7 km/h 42 % 0 in /  0.0 mm
16:22 66 °F /  18.9 °C 42.3 °F /  5.7 °C 30.1 in /  1018.8 hPa SSE 8 mph /  12.9 km/h 11 mph /  17.7 km/h 42 % 0 in /  0.0 mm
16:32 65.8 °F /  18.8 °C 42.1 °F /  5.6 °C 30.1 in /  1018.8 hPa SSE 7 mph /  11.3 km/h 11 mph /  17.7 km/h 42 % 0 in /  0.0 mm
16:37 66 °F /  18.9 °C 42.8 °F /  6.0 °C 30.1 in /  1018.8 hPa SE 2 mph /  3.2 km/h 11 mph /  17.7 km/h 43 % 0 in /  0.0 mm
16:42 66.6 °F /  19.2 °C 43.3 °F /  6.3 °C 30.1 in /  1018.8 hPa SSE 4 mph /  6.4 km/h 10 mph /  16.1 km/h 43 % 0 in /  0.0 mm
16:47 66.7 °F /  19.3 °C 43 °F /  6.1 °C 30.1 in /  1018.8 hPa SE 2 mph /  3.2 km/h 12 mph /  19.3 km/h 42 % 0 in /  0.0 mm
16:52 66.7 °F /  19.3 °C 41 °F /  5.0 °C 30.1 in /  1018.8 hPa SW 6 mph /  9.7 km/h 12 mph /  19.3 km/h 39 % 0 in /  0.0 mm
17:02 66.7 °F /  19.3 °C 42.3 °F /  5.7 °C 30.1 in /  1018.8 hPa SE 2 mph /  3.2 km/h 10 mph /  16.1 km/h 41 % 0 in /  0.0 mm
17:12 66.9 °F /  19.4 °C 43.2 °F /  6.2 °C 30.1 in /  1018.8 hPa SSW 4 mph /  6.4 km/h 10 mph /  16.1 km/h 42 % 0 in /  0.0 mm
17:17 66.7 °F /  19.3 °C 42.3 °F /  5.7 °C 30.1 in /  1018.8 hPa South 9 mph /  14.5 km/h 11 mph /  17.7 km/h 41 % 0 in /  0.0 mm
17:22 66.6 °F /  19.2 °C 42.8 °F /  6.0 °C 30.1 in /  1018.8 hPa SSE 5 mph /  8.0 km/h 11 mph /  17.7 km/h 42 % 0 in /  0.0 mm
17:32 66.9 °F /  19.4 °C 43.7 °F /  6.5 °C 30.1 in /  1018.8 hPa SSW 5 mph /  8.0 km/h 13 mph /  20.9 km/h 43 % 0 in /  0.0 mm
17:37 67.3 °F /  19.6 °C 43.3 °F /  6.3 °C 30.1 in /  1018.8 hPa SSW 5 mph /  8.0 km/h 13 mph /  20.9 km/h 42 % 0 in /  0.0 mm
17:42 67.5 °F /  19.7 °C 44.2 °F /  6.8 °C 30.1 in /  1018.8 hPa South 2 mph /  3.2 km/h 9 mph /  14.5 km/h 43 % 0 in /  0.0 mm
17:52 67.5 °F /  19.7 °C 43 °F /  6.1 °C 30.1 in /  1018.8 hPa SSE 7 mph /  11.3 km/h 10 mph /  16.1 km/h 41 % 0 in /  0.0 mm
17:57 67.5 °F /  19.7 °C 43 °F /  6.1 °C 30.1 in /  1018.8 hPa SSE 1 mph /  1.6 km/h 10 mph /  16.1 km/h 41 % 0 in /  0.0 mm
18:02 67.3 °F /  19.6 °C 43.3 °F /  6.3 °C 30.1 in /  1018.8 hPa SSW 1 mph /  1.6 km/h 10 mph /  16.1 km/h 42 % 0 in /  0.0 mm
18:12 67.8 °F /  19.9 °C 44.4 °F /  6.9 °C 30.1 in /  1018.8 hPa SSE 4 mph /  6.4 km/h 10 mph /  16.1 km/h 43 % 0 in /  0.0 mm
18:17 67.5 °F /  19.7 °C 44.8 °F /  7.1 °C 30.1 in /  1019.2 hPa SE 1 mph /  1.6 km/h 6 mph /  9.7 km/h 44 % 0 in /  0.0 mm
18:22 67.6 °F /  19.8 °C 45 °F /  7.2 °C 30.1 in /  1019.2 hPa ESE 2 mph /  3.2 km/h 6 mph /  9.7 km/h 44 % 0 in /  0.0 mm
18:32 67.6 °F /  19.8 °C 43.7 °F /  6.5 °C 30.1 in /  1019.2 hPa SSE 3 mph /  4.8 km/h 7 mph /  11.3 km/h 42 % 0 in /  0.0 mm
18:37 67.5 °F /  19.7 °C 43.5 °F /  6.4 °C 30.1 in /  1019.2 hPa SE 2 mph /  3.2 km/h 6 mph /  9.7 km/h 42 % 0 in /  0.0 mm
18:42 67.5 °F /  19.7 °C 44.2 °F /  6.8 °C 30.1 in /  1019.2 hPa SSE 2 mph /  3.2 km/h 6 mph /  9.7 km/h 43 % 0 in /  0.0 mm
18:52 66.9 °F /  19.4 °C 43.7 °F /  6.5 °C 30.1 in /  1019.2 hPa SE 4 mph /  6.4 km/h 7 mph /  11.3 km/h 43 % 0 in /  0.0 mm
18:57 66.7 °F /  19.3 °C 44.8 °F /  7.1 °C 30.1 in /  1019.2 hPa Calm   7 mph /  11.3 km/h 45 % 0 in /  0.0 mm
19:02 66.7 °F /  19.3 °C 43.5 °F /  6.4 °C 30.1 in /  1019.2 hPa Calm   7 mph /  11.3 km/h 43 % 0 in /  0.0 mm
19:12 66.7 °F /  19.3 °C 43.5 °F /  6.4 °C 30.1 in /  1018.8 hPa SSE 1 mph /  1.6 km/h 5 mph /  8.0 km/h 43 % 0 in /  0.0 mm
19:17 66.7 °F /  19.3 °C 45.3 °F /  7.4 °C 30.1 in /  1019.2 hPa SE 2 mph /  3.2 km/h 5 mph /  8.0 km/h 46 % 0 in /  0.0 mm
19:22 66.9 °F /  19.4 °C 44.2 °F /  6.8 °C 30.1 in /  1019.2 hPa Calm   5 mph /  8.0 km/h 44 % 0 in /  0.0 mm
19:27 67.3 °F /  19.6 °C 44.1 °F /  6.7 °C 30.1 in /  1019.2 hPa SSE 1 mph /  1.6 km/h 5 mph /  8.0 km/h 43 % 0 in /  0.0 mm
19:32 67.3 °F /  19.6 °C 44.6 °F /  7.0 °C 30.1 in /  1019.2 hPa Calm   4 mph /  6.4 km/h 44 % 0 in /  0.0 mm
19:37 67.5 °F /  19.7 °C 44.8 °F /  7.1 °C 30.1 in /  1019.2 hPa Calm   4 mph /  6.4 km/h 44 % 0 in /  0.0 mm
19:42 67.5 °F /  19.7 °C 45.3 °F /  7.4 °C 30.1 in /  1019.2 hPa Calm   4 mph /  6.4 km/h 45 % 0 in /  0.0 mm
19:47 67.1 °F /  19.5 °C 45.7 °F /  7.6 °C 30.1 in /  1019.2 hPa Calm   2 mph /  3.2 km/h 46 % 0 in /  0.0 mm
19:52 66.7 °F /  19.3 °C 45.3 °F /  7.4 °C 30.1 in /  1019.2 hPa Calm   1 mph /  1.6 km/h 46 % 0 in /  0.0 mm
19:57 65.7 °F /  18.7 °C 45 °F /  7.2 °C 30.1 in /  1019.2 hPa Calm   1 mph /  1.6 km/h 47 % 0 in /  0.0 mm
20:02 64.9 °F /  18.3 °C 44.8 °F /  7.1 °C 30.1 in /  1019.2 hPa Calm     48 % 0 in /  0.0 mm
20:07 64.2 °F /  17.9 °C 44.1 °F /  6.7 °C 30.1 in /  1019.2 hPa Calm     48 % 0 in /  0.0 mm
20:12 63.3 °F /  17.4 °C 44.4 °F /  6.9 °C 30.1 in /  1019.5 hPa Calm     50 % 0 in /  0.0 mm
20:22 61.9 °F /  16.6 °C 44.1 °F /  6.7 °C 30.1 in /  1019.5 hPa Calm     52 % 0 in /  0.0 mm
20:27 61.3 °F /  16.3 °C 44.1 °F /  6.7 °C 30.1 in /  1019.5 hPa Calm     53 % 0 in /  0.0 mm
20:37 61 °F /  16.1 °C 43.7 °F /  6.5 °C 30.1 in /  1019.5 hPa Calm   1 mph /  1.6 km/h 53 % 0 in /  0.0 mm
20:42 61 °F /  16.1 °C 43.7 °F /  6.5 °C 30.1 in /  1019.5 hPa Calm   1 mph /  1.6 km/h 53 % 0 in /  0.0 mm
20:52 60.3 °F /  15.7 °C 43.5 °F /  6.4 °C 30.1 in /  1019.5 hPa Calm   1 mph /  1.6 km/h 54 % 0 in /  0.0 mm
20:57 59.4 °F /  15.2 °C 43.7 °F /  6.5 °C 30.1 in /  1019.5 hPa NNW 2 mph /  3.2 km/h   56 % 0 in /  0.0 mm
21:02 58.6 °F /  14.8 °C 43.5 °F /  6.4 °C 30.1 in /  1019.5 hPa WNW 1 mph /  1.6 km/h 2 mph /  3.2 km/h 57 % 0 in /  0.0 mm
21:12 57.7 °F /  14.3 °C 43.5 °F /  6.4 °C 30.1 in /  1019.9 hPa WNW 2 mph /  3.2 km/h 3 mph /  4.8 km/h 59 % 0 in /  0.0 mm
21:17 58.3 °F /  14.6 °C 43.5 °F /  6.4 °C 30.1 in /  1019.9 hPa WNW 1 mph /  1.6 km/h 2 mph /  3.2 km/h 58 % 0 in /  0.0 mm
21:22 57.9 °F /  14.4 °C 43.7 °F /  6.5 °C 30.1 in /  1019.9 hPa WNW 1 mph /  1.6 km/h 2 mph /  3.2 km/h 59 % 0 in /  0.0 mm
21:32 57 °F /  13.9 °C 43.3 °F /  6.3 °C 30.1 in /  1019.9 hPa NW 1 mph /  1.6 km/h 2 mph /  3.2 km/h 60 % 0 in /  0.0 mm
21:42 55.8 °F /  13.2 °C 43.7 °F /  6.5 °C 30.1 in /  1019.9 hPa NNW 2 mph /  3.2 km/h 2 mph /  3.2 km/h 64 % 0 in /  0.0 mm
21:47 55.4 °F /  13.0 °C 43.9 °F /  6.6 °C 30.1 in /  1019.9 hPa NW 2 mph /  3.2 km/h 2 mph /  3.2 km/h 65 % 0 in /  0.0 mm
21:52 55.6 °F /  13.1 °C 43.5 °F /  6.4 °C 30.1 in /  1020.2 hPa Calm   3 mph /  4.8 km/h 64 % 0 in /  0.0 mm
21:57 55.2 °F /  12.9 °C 42.8 °F /  6.0 °C 30.1 in /  1020.2 hPa Calm   3 mph /  4.8 km/h 63 % 0 in /  0.0 mm
22:02 55.2 °F /  12.9 °C 42.8 °F /  6.0 °C 30.1 in /  1020.2 hPa NW 2 mph /  3.2 km/h 3 mph /  4.8 km/h 63 % 0 in /  0.0 mm
22:07 55.8 °F /  13.2 °C 43.3 °F /  6.3 °C 30.1 in /  1020.2 hPa Calm   2 mph /  3.2 km/h 63 % 0 in /  0.0 mm
22:17 54.1 °F /  12.3 °C 43 °F /  6.1 °C 30.1 in /  1020.2 hPa NW 1 mph /  1.6 km/h 2 mph /  3.2 km/h 66 % 0 in /  0.0 mm
22:22 54 °F /  12.2 °C 42.8 °F /  6.0 °C 30.1 in /  1020.2 hPa Calm   2 mph /  3.2 km/h 66 % 0 in /  0.0 mm
22:27 53.8 °F /  12.1 °C 42.6 °F /  5.9 °C 30.1 in /  1020.5 hPa North 2 mph /  3.2 km/h 2 mph /  3.2 km/h 66 % 0 in /  0.0 mm
22:32 54 °F /  12.2 °C 42.8 °F /  6.0 °C 30.1 in /  1020.2 hPa NNW 2 mph /  3.2 km/h 3 mph /  4.8 km/h 66 % 0 in /  0.0 mm
22:37 54.5 °F /  12.5 °C 42.6 °F /  5.9 °C 30.1 in /  1020.5 hPa North 2 mph /  3.2 km/h 3 mph /  4.8 km/h 64 % 0 in /  0.0 mm
22:42 54.5 °F /  12.5 °C 42.6 °F /  5.9 °C 30.1 in /  1020.5 hPa NNW 1 mph /  1.6 km/h 3 mph /  4.8 km/h 64 % 0 in /  0.0 mm
22:52 53.4 °F /  11.9 °C 42.8 °F /  6.0 °C 30.1 in /  1020.5 hPa ESE 2 mph /  3.2 km/h 3 mph /  4.8 km/h 67 % 0 in /  0.0 mm
22:57 52.2 °F /  11.2 °C 42.6 °F /  5.9 °C 30.1 in /  1020.5 hPa NE 2 mph /  3.2 km/h 2 mph /  3.2 km/h 70 % 0 in /  0.0 mm
23:02 52.5 °F /  11.4 °C 43 °F /  6.1 °C 30.1 in /  1020.5 hPa NE 2 mph /  3.2 km/h 3 mph /  4.8 km/h 70 % 0 in /  0.0 mm
23:07 52.9 °F /  11.6 °C 42.6 °F /  5.9 °C 30.1 in /  1020.5 hPa Calm   3 mph /  4.8 km/h 68 % 0 in /  0.0 mm
23:12 53.1 °F /  11.7 °C 42.4 °F /  5.8 °C 30.1 in /  1020.5 hPa NNW 2 mph /  3.2 km/h 3 mph /  4.8 km/h 67 % 0 in /  0.0 mm
23:17 52.9 °F /  11.6 °C 42.3 °F /  5.7 °C 30.1 in /  1020.5 hPa WNW 3 mph /  4.8 km/h 3 mph /  4.8 km/h 67 % 0 in /  0.0 mm
23:22 52.2 °F /  11.2 °C 41.9 °F /  5.5 °C 30.1 in /  1020.5 hPa WNW 1 mph /  1.6 km/h 3 mph /  4.8 km/h 68 % 0 in /  0.0 mm
23:32 52.9 °F /  11.6 °C 41.9 °F /  5.5 °C 30.1 in /  1020.5 hPa WNW 1 mph /  1.6 km/h 3 mph /  4.8 km/h 66 % 0 in /  0.0 mm
23:37 52.2 °F /  11.2 °C 41.9 °F /  5.5 °C 30.2 in /  1020.9 hPa WNW 1 mph /  1.6 km/h 3 mph /  4.8 km/h 68 % 0 in /  0.0 mm
23:42 51.8 °F /  11.0 °C 41.9 °F /  5.5 °C 30.2 in /  1020.9 hPa WNW 1 mph /  1.6 km/h 3 mph /  4.8 km/h 69 % 0 in /  0.0 mm
23:52 50.5 °F /  10.3 °C 41.5 °F /  5.3 °C 30.2 in /  1020.9 hPa West 1 mph /  1.6 km/h 2 mph /  3.2 km/h 71 % 0 in /  0.0 mm
23:57 50.2 °F /  10.1 °C 41.9 °F /  5.5 °C 30.2 in /  1020.9 hPa West 1 mph /  1.6 km/h 2 mph /  3.2 km/h 73 % 0 in /  0.0 mm
Meteo18
Compliments of Weather Underground - 4 mb

Script developed by  Jim McMurry - jmcmurry@mwt.net Adapted for the template by  Wim van der Kuil - Leuven-Template.eu

You find our weather info also at:

European Weather Network

Weather Underground

Equipment we use:

Weather-station
Davis Vue

Weather-program
Meteohub

Weather-server
Raspberry PI 2 B+

Provider
1 and 1

Davis Vue

Meteohub

Raspberry PI 2 B+

1 and 1